Time;durP1;ratioP1;P1;durP2;ratioP2;P2;SDS_P1;SDS_P2;PMS_P1;PMS_P2;Temp;Humidity;BMP_temperature;BMP_pressure;BME280_temperature;BME280_humidity;BME280_pressure;Samples;Min_cycle;Max_cycle;Signal;HPM_P1;HPM_P2
2023/06/22 00:00:15;;;;;;;0.98;0.30;;;21.20;68.30;;;;;;5020693;28;20048;-88
2023/06/22 00:02:43;;;;;;;1.02;0.40;;;21.10;68.30;;;;;;5019715;28;20049;-88
2023/06/22 00:05:10;;;;;;;1.63;0.50;;;21.10;68.30;;;;;;5032000;28;20477;-88
2023/06/22 00:07:37;;;;;;;1.48;0.65;;;21.10;68.30;;;;;;4992270;28;20045;-89
2023/06/22 00:10:04;;;;;;;1.10;0.50;;;21.10;68.30;;;;;;5029389;28;20060;-88
2023/06/22 00:12:32;;;;;;;0.75;0.30;;;21.00;68.30;;;;;;5036269;28;20111;-88
2023/06/22 00:14:59;;;;;;;1.95;0.50;;;21.00;68.40;;;;;;5019170;28;20132;-89
2023/06/22 00:17:26;;;;;;;1.48;0.50;;;21.00;68.40;;;;;;5028046;28;20055;-89
2023/06/22 00:19:55;;;;;;;1.00;0.50;;;21.00;68.50;;;;;;5016558;28;20042;-88
2023/06/22 00:22:27;;;;;;;1.10;0.50;;;20.90;68.60;;;;;;5021591;28;20064;-88
2023/06/22 00:24:56;;;;;;;1.50;0.52;;;20.90;68.70;;;;;;5013869;28;20037;-88
2023/06/22 00:27:23;;;;;;;2.20;0.50;;;20.90;68.80;;;;;;5029026;28;20052;-89
2023/06/22 00:29:50;;;;;;;1.83;0.60;;;20.90;69.00;;;;;;5034015;28;20152;-88
2023/06/22 00:32:18;;;;;;;1.00;0.43;;;20.80;69.10;;;;;;4994622;28;20050;-89
2023/06/22 00:34:47;;;;;;;1.95;0.70;;;20.80;69.20;;;;;;5000224;28;20052;-88
2023/06/22 00:37:14;;;;;;;1.90;0.68;;;20.80;69.30;;;;;;4983879;28;20070;-88
2023/06/22 00:39:42;;;;;;;1.20;0.40;;;20.80;69.40;;;;;;5004015;28;20042;-87
2023/06/22 00:42:10;;;;;;;2.05;0.63;;;20.70;69.50;;;;;;5037258;28;20045;-89
2023/06/22 00:44:38;;;;;;;1.23;0.50;;;20.70;69.60;;;;;;5035779;28;20442;-88
2023/06/22 00:47:06;;;;;;;1.52;0.60;;;20.70;69.80;;;;;;5016480;28;20042;-88
2023/06/22 00:49:33;;;;;;;1.30;0.50;;;20.60;69.80;;;;;;5003437;28;20501;-88
2023/06/22 00:52:01;;;;;;;1.10;0.50;;;20.60;69.90;;;;;;5025773;28;20057;-89
2023/06/22 00:54:28;;;;;;;1.92;0.70;;;20.70;70.10;;;;;;4983708;28;20140;-88
2023/06/22 00:56:57;;;;;;;1.70;0.70;;;20.60;70.10;;;;;;4999398;28;20458;-88
2023/06/22 00:59:26;;;;;;;1.70;0.55;;;20.60;70.30;;;;;;5017563;28;20046;-88
2023/06/22 01:01:53;;;;;;;1.77;0.77;;;20.50;70.40;;;;;;5024670;28;20065;-88
2023/06/22 01:04:24;;;;;;;1.40;0.63;;;20.50;70.60;;;;;;4998716;28;20049;-88
2023/06/22 01:07:01;;;;;;;1.93;0.60;;;20.40;70.70;;;;;;5055508;28;20183;-89
2023/06/22 01:09:35;;;;;;;1.85;0.63;;;20.40;71.00;;;;;;5018397;28;20421;-87
2023/06/22 01:12:07;;;;;;;1.40;0.47;;;20.30;71.20;;;;;;5018948;28;20059;-88
2023/06/22 01:14:46;;;;;;;0.82;0.50;;;20.30;71.50;;;;;;5019050;28;20144;-87
2023/06/22 01:17:16;;;;;;;0.80;0.40;;;20.20;71.80;;;;;;4996271;28;20136;-87
2023/06/22 01:19:46;;;;;;;0.90;0.30;;;20.20;72.00;;;;;;5001394;28;20030;-87
2023/06/22 01:22:20;;;;;;;1.45;0.50;;;20.10;72.30;;;;;;4979914;28;20041;-88
2023/06/22 01:25:19;;;;;;;1.95;0.60;;;20.00;72.50;;;;;;4979203;28;20450;-87
2023/06/22 01:28:03;;;;;;;1.10;0.50;;;20.00;72.60;;;;;;4995796;28;20042;-88
2023/06/22 01:30:33;;;;;;;1.10;0.43;;;20.00;72.80;;;;;;4987708;28;20053;-88
2023/06/22 01:33:05;;;;;;;1.13;0.50;;;19.90;72.90;;;;;;5001232;28;20042;-88
2023/06/22 01:35:33;;;;;;;2.58;0.88;;;19.90;72.80;;;;;;4994877;28;20045;-88
2023/06/22 01:38:00;;;;;;;1.20;0.50;;;19.90;72.80;;;;;;5002400;28;20133;-88
2023/06/22 01:40:29;;;;;;;1.85;0.80;;;19.90;72.80;;;;;;4976117;28;20043;-88
2023/06/22 01:42:57;;;;;;;1.45;0.70;;;20.00;72.80;;;;;;5002939;28;20061;-88
2023/06/22 01:45:25;;;;;;;2.00;0.80;;;20.00;72.80;;;;;;4984008;28;20557;-88
2023/06/22 01:47:53;;;;;;;1.35;0.50;;;20.00;72.90;;;;;;4987651;28;20063;-88
2023/06/22 01:50:21;;;;;;;1.75;0.80;;;19.90;72.90;;;;;;4972427;28;20367;-88
2023/06/22 01:52:48;;;;;;;2.63;0.90;;;19.90;73.00;;;;;;4989788;28;20107;-88
2023/06/22 01:55:15;;;;;;;2.25;0.90;;;19.90;73.80;;;;;;4985527;28;20060;-88
2023/06/22 01:57:42;;;;;;;2.65;0.88;;;19.90;73.10;;;;;;4987261;28;20049;-88
2023/06/22 02:00:14;;;;;;;1.52;0.82;;;19.90;73.10;;;;;;4966001;28;20069;-89
2023/06/22 02:03:05;;;;;;;2.08;0.82;;;19.90;73.10;;;;;;5015422;28;20049;-88
2023/06/22 02:05:38;;;;;;;2.92;1.35;;;20.00;73.00;;;;;;4994763;28;20058;-88
2023/06/22 02:08:08;;;;;;;2.83;1.17;;;19.90;73.10;;;;;;5024155;28;20068;-88
2023/06/22 02:10:40;;;;;;;2.67;0.90;;;19.90;73.00;;;;;;5017862;28;20041;-88
2023/06/22 02:13:10;;;;;;;2.35;0.90;;;19.90;73.00;;;;;;5017523;28;20401;-88
2023/06/22 02:15:37;;;;;;;1.67;0.90;;;19.90;73.00;;;;;;5004649;28;20052;-88
2023/06/22 02:18:05;;;;;;;2.30;1.00;;;19.90;73.20;;;;;;5016606;28;20099;-88
2023/06/22 02:20:32;;;;;;;2.25;1.08;;;19.80;73.30;;;;;;5012253;28;20053;-87
2023/06/22 02:22:59;;;;;;;1.63;0.77;;;19.80;73.50;;;;;;5003541;28;20088;-88
2023/06/22 02:25:26;;;;;;;2.05;0.80;;;19.80;73.60;;;;;;5001072;28;20128;-88
2023/06/22 02:27:53;;;;;;;2.10;1.00;;;19.80;73.70;;;;;;4969676;28;20044;-88
2023/06/22 02:30:20;;;;;;;2.63;1.30;;;19.80;73.80;;;;;;5009275;28;20551;-88
2023/06/22 02:32:47;;;;;;;1.90;0.85;;;19.70;73.90;;;;;;5024190;28;20041;-88
2023/06/22 02:35:15;;;;;;;2.30;1.10;;;19.70;74.00;;;;;;4996624;28;20096;-88
2023/06/22 02:37:42;;;;;;;2.05;0.98;;;19.70;74.10;;;;;;4981377;28;20518;-88
2023/06/22 02:40:10;;;;;;;2.03;1.00;;;19.70;74.20;;;;;;4994716;28;20601;-88
2023/06/22 02:42:37;;;;;;;1.88;0.90;;;19.60;74.20;;;;;;4997332;28;20049;-88
2023/06/22 02:45:05;;;;;;;2.13;1.00;;;19.70;74.40;;;;;;5011540;28;20048;-88
2023/06/22 02:47:32;;;;;;;2.08;1.13;;;19.60;74.50;;;;;;5020221;28;20052;-88
2023/06/22 02:50:00;;;;;;;2.20;1.23;;;19.60;74.50;;;;;;4993634;28;20052;-88
2023/06/22 02:52:30;;;;;;;2.75;1.35;;;19.60;74.70;;;;;;4991846;28;20073;-88
2023/06/22 02:54:58;;;;;;;2.58;1.33;;;19.60;74.80;;;;;;5007130;28;20083;-88
2023/06/22 02:57:25;;;;;;;2.63;1.02;;;19.50;74.80;;;;;;5005202;28;20140;-87
2023/06/22 02:59:52;;;;;;;2.65;0.95;;;19.60;75.00;;;;;;4999204;28;20077;-88
2023/06/22 03:02:21;;;;;;;2.90;1.48;;;19.50;75.00;;;;;;5006180;28;20068;-88
2023/06/22 03:04:49;;;;;;;1.85;1.15;;;19.60;75.20;;;;;;4988027;28;20079;-88
2023/06/22 03:07:20;;;;;;;2.63;1.40;;;19.60;75.20;;;;;;5019876;28;20102;-88
2023/06/22 03:09:49;;;;;;;2.50;1.20;;;19.50;75.20;;;;;;5000866;28;20126;-88
2023/06/22 03:12:16;;;;;;;3.25;2.03;;;19.50;75.30;;;;;;4992522;28;20045;-88
2023/06/22 03:14:51;;;;;;;2.97;1.73;;;19.60;75.50;;;;;;4979166;28;20394;-88
2023/06/22 03:17:18;;;;;;;4.53;2.17;;;19.50;75.50;;;;;;5019756;28;20460;-88
2023/06/22 03:19:45;;;;;;;3.00;1.70;;;19.50;75.70;;;;;;5022739;28;20033;-88
2023/06/22 03:22:12;;;;;;;2.22;1.60;;;19.50;75.80;;;;;;5003574;28;20045;-88
2023/06/22 03:24:40;;;;;;;3.58;1.98;;;19.50;75.90;;;;;;4995466;28;20100;-88
2023/06/22 03:27:07;;;;;;;4.25;2.10;;;19.50;76.00;;;;;;4984963;28;20080;-88
2023/06/22 03:29:34;;;;;;;3.38;1.92;;;19.50;76.20;;;;;;5018959;28;20048;-88
2023/06/22 03:32:02;;;;;;;2.92;1.63;;;19.40;76.50;;;;;;5035831;28;20065;-88
2023/06/22 03:34:38;;;;;;;3.40;1.67;;;19.40;76.70;;;;;;5006495;28;20049;-88
2023/06/22 03:37:05;;;;;;;3.92;2.10;;;19.40;76.90;;;;;;4986551;28;20088;-88
2023/06/22 03:39:32;;;;;;;4.25;2.67;;;19.40;77.10;;;;;;4992491;28;20038;-88
2023/06/22 03:42:00;;;;;;;3.38;1.75;;;19.30;77.20;;;;;;4996815;28;20038;-88
2023/06/22 03:44:27;;;;;;;4.80;2.75;;;19.30;77.40;;;;;;4986682;28;20490;-88
2023/06/22 03:46:54;;;;;;;3.92;2.22;;;19.30;77.40;;;;;;4996425;28;20046;-88
2023/06/22 03:49:22;;;;;;;4.45;1.98;;;19.30;77.50;;;;;;5019309;28;20045;-88
2023/06/22 03:51:50;;;;;;;4.43;2.50;;;19.30;77.60;;;;;;5006018;28;20119;-88
2023/06/22 03:54:17;;;;;;;4.78;3.08;;;19.30;77.70;;;;;;4983012;28;20077;-87
2023/06/22 03:56:44;;;;;;;4.32;2.70;;;19.30;77.80;;;;;;5004008;28;20114;-87
2023/06/22 03:59:13;;;;;;;5.60;3.35;;;19.30;78.00;;;;;;5000903;28;20053;-87
2023/06/22 04:01:40;;;;;;;5.57;3.17;;;19.30;78.10;;;;;;4980129;28;20447;-87
2023/06/22 04:04:07;;;;;;;4.32;2.65;;;19.30;78.20;;;;;;4981980;28;20041;-88
2023/06/22 04:06:35;;;;;;;5.32;2.97;;;19.30;78.20;;;;;;5003668;28;20072;-88
2023/06/22 04:09:02;;;;;;;5.22;3.25;;;19.30;78.30;;;;;;5006766;28;20128;-87
2023/06/22 04:11:29;;;;;;;6.20;4.47;;;19.40;78.40;;;;;;4993641;28;20044;-87
2023/06/22 04:13:56;;;;;;;5.85;4.10;;;19.40;78.60;;;;;;5004529;28;20136;-88
2023/06/22 04:16:23;;;;;;;5.50;3.38;;;19.40;78.90;;;;;;5003441;28;20056;-87
2023/06/22 04:18:51;;;;;;;6.88;4.45;;;19.40;78.90;;;;;;4987226;28;20056;-88
2023/06/22 04:21:19;;;;;;;5.70;4.00;;;19.30;78.80;;;;;;5001066;28;20091;-88
2023/06/22 04:23:47;;;;;;;5.43;3.67;;;19.40;79.00;;;;;;4990006;28;20483;-87
2023/06/22 04:26:14;;;;;;;5.82;3.80;;;19.30;79.00;;;;;;5023335;28;20042;-88
2023/06/22 04:28:41;;;;;;;7.15;3.88;;;19.40;79.10;;;;;;4990603;28;20497;-87
2023/06/22 04:31:08;;;;;;;8.05;5.40;;;19.40;79.30;;;;;;4999597;28;20061;-88
2023/06/22 04:33:35;;;;;;;6.15;4.30;;;19.40;79.30;;;;;;4987257;28;20434;-88
2023/06/22 04:36:03;;;;;;;6.45;3.92;;;19.40;79.30;;;;;;5025775;28;20079;-88
2023/06/22 04:38:33;;;;;;;6.63;4.60;;;19.50;79.20;;;;;;5036942;28;20056;-87
2023/06/22 04:41:03;;;;;;;6.88;5.35;;;19.50;79.10;;;;;;4988113;28;20045;-88
2023/06/22 04:43:30;;;;;;;6.07;4.43;;;19.60;79.20;;;;;;5036767;28;20041;-87
2023/06/22 04:46:03;;;;;;;6.57;4.18;;;19.60;79.30;;;;;;5001560;28;20040;-88
2023/06/22 04:48:33;;;;;;;6.93;4.60;;;19.60;79.30;;;;;;5020459;28;20053;-87
2023/06/22 04:51:04;;;;;;;5.53;3.90;;;19.60;79.30;;;;;;5002677;28;20053;-88
2023/06/22 04:53:31;;;;;;;6.15;4.30;;;19.70;79.40;;;;;;4999174;28;20046;-88
2023/06/22 04:55:58;;;;;;;7.15;4.28;;;19.70;79.40;;;;;;4999151;28;20050;-88
2023/06/22 04:58:28;;;;;;;7.53;4.63;;;19.70;79.40;;;;;;4999195;28;20077;-88
2023/06/22 05:00:56;;;;;;;7.13;4.95;;;19.70;79.40;;;;;;4996175;28;20117;-88
2023/06/22 05:03:27;;;;;;;6.57;3.83;;;19.70;79.50;;;;;;5022045;28;20132;-88
2023/06/22 05:05:54;;;;;;;7.05;4.90;;;19.80;79.60;;;;;;5038452;28;20127;-89
2023/06/22 05:08:21;;;;;;;7.80;4.82;;;19.80;79.60;;;;;;4994071;28;20137;-89
2023/06/22 05:10:48;;;;;;;6.75;4.38;;;19.80;79.50;;;;;;4999070;28;20061;-89
2023/06/22 05:13:32;;;;;;;5.68;3.78;;;19.90;79.40;;;;;;4970899;28;20137;-87
2023/06/22 05:16:01;;;;;;;5.82;4.05;;;20.00;79.20;;;;;;4987208;28;20095;-88
2023/06/22 05:18:32;;;;;;;7.07;4.95;;;20.10;79.80;;;;;;4995986;28;20045;-89
2023/06/22 05:21:00;;;;;;;5.93;4.13;;;20.20;79.20;;;;;;4985180;28;20046;-88
2023/06/22 05:23:27;;;;;;;6.35;3.95;;;20.20;79.00;;;;;;5000276;28;20103;-88
2023/06/22 05:25:57;;;;;;;7.18;5.07;;;20.30;78.90;;;;;;5012754;28;20046;-89
2023/06/22 05:28:25;;;;;;;7.00;4.80;;;20.30;78.90;;;;;;4994448;28;20101;-88
2023/06/22 05:30:52;;;;;;;7.63;4.90;;;20.40;78.90;;;;;;4975094;28;20046;-89
2023/06/22 05:33:19;;;;;;;6.53;5.05;;;20.40;78.80;;;;;;4967608;28;20076;-89
2023/06/22 05:35:46;;;;;;;6.80;4.00;;;20.50;78.70;;;;;;4979268;28;20088;-89
2023/06/22 05:38:14;;;;;;;4.55;3.63;;;20.60;79.30;;;;;;4980877;28;20058;-88
2023/06/22 05:40:41;;;;;;;5.57;3.67;;;20.60;78.40;;;;;;5002739;28;20050;-89
2023/06/22 05:43:08;;;;;;;6.25;4.60;;;20.70;78.30;;;;;;4992355;28;20137;-89
2023/06/22 05:45:35;;;;;;;5.57;3.53;;;20.80;78.10;;;;;;4999677;28;20063;-88
2023/06/22 05:48:03;;;;;;;6.15;3.40;;;20.90;77.90;;;;;;4985471;28;20045;-88
2023/06/22 05:50:30;;;;;;;6.03;3.45;;;21.00;77.80;;;;;;4987004;28;20061;-89
2023/06/22 05:52:58;;;;;;;4.95;3.45;;;21.10;77.60;;;;;;4982618;28;20092;-89
2023/06/22 05:55:25;;;;;;;5.97;4.07;;;21.20;77.40;;;;;;4982276;28;20136;-89
2023/06/22 05:57:52;;;;;;;5.20;3.17;;;21.30;77.30;;;;;;4982206;28;20041;-88
2023/06/22 06:00:19;;;;;;;4.97;3.67;;;21.40;77.20;;;;;;4978726;28;20491;-88
2023/06/22 06:02:46;;;;;;;5.10;3.45;;;21.50;76.90;;;;;;4983822;28;20045;-88
2023/06/22 06:05:14;;;;;;;4.82;2.53;;;21.60;76.70;;;;;;5000012;28;20525;-89
2023/06/22 06:07:42;;;;;;;3.65;2.30;;;21.60;76.60;;;;;;5009175;28;20060;-88
2023/06/22 06:10:09;;;;;;;6.05;3.60;;;21.80;76.40;;;;;;5011753;28;20049;-88
2023/06/22 06:12:36;;;;;;;5.60;3.05;;;21.90;76.20;;;;;;5020266;28;20040;-90
2023/06/22 06:15:06;;;;;;;5.50;3.78;;;22.00;76.00;;;;;;4999446;28;20069;-89
2023/06/22 06:17:48;;;;;;;5.57;4.00;;;22.00;75.80;;;;;;5022137;28;20485;-89
2023/06/22 06:20:25;;;;;;;6.35;3.45;;;22.00;75.70;;;;;;5012279;28;20045;-88
2023/06/22 06:22:53;;;;;;;7.97;4.10;;;22.10;75.70;;;;;;5022055;28;20486;-90
2023/06/22 06:25:21;;;;;;;4.72;3.17;;;22.10;75.60;;;;;;5016655;28;20087;-87
2023/06/22 06:27:50;;;;;;;4.20;2.75;;;22.20;75.50;;;;;;5001325;28;20038;-87
2023/06/22 06:30:19;;;;;;;4.80;2.95;;;22.30;75.30;;;;;;5013475;28;20046;-86
2023/06/22 06:32:47;;;;;;;4.40;2.75;;;22.40;75.00;;;;;;4993949;28;20055;-87
2023/06/22 06:35:16;;;;;;;4.70;3.13;;;22.50;74.80;;;;;;5003098;28;20049;-85
2023/06/22 06:37:45;;;;;;;4.45;2.72;;;22.60;74.70;;;;;;5005410;28;20447;-85
2023/06/22 06:40:14;;;;;;;4.03;2.38;;;22.70;74.50;;;;;;5000928;28;20042;-85
2023/06/22 06:42:44;;;;;;;5.47;3.85;;;22.80;74.20;;;;;;5003549;28;20052;-85
2023/06/22 06:45:13;;;;;;;4.50;2.80;;;22.90;73.90;;;;;;5004969;28;20041;-86
2023/06/22 06:47:40;;;;;;;5.00;3.58;;;23.00;73.80;;;;;;5017561;28;20430;-86
2023/06/22 06:50:08;;;;;;;3.78;2.75;;;23.00;73.70;;;;;;4973144;28;20056;-85
2023/06/22 06:52:35;;;;;;;5.25;3.20;;;23.00;73.50;;;;;;5001018;28;20058;-86
2023/06/22 06:55:08;;;;;;;6.00;3.70;;;23.10;73.40;;;;;;4988543;28;20557;-86
2023/06/22 06:57:37;;;;;;;5.18;2.97;;;23.10;73.30;;;;;;4997621;28;20076;-86
2023/06/22 07:00:11;;;;;;;4.10;2.92;;;23.10;73.30;;;;;;4997278;28;20042;-86
2023/06/22 07:02:43;;;;;;;4.88;3.00;;;23.30;73.10;;;;;;5016256;28;20041;-86
2023/06/22 07:05:12;;;;;;;3.25;2.30;;;23.40;72.80;;;;;;5015390;28;20497;-86
2023/06/22 07:07:41;;;;;;;3.58;2.20;;;23.50;72.50;;;;;;5023677;28;20048;-86
2023/06/22 07:10:09;;;;;;;3.65;2.08;;;23.70;72.30;;;;;;4992059;28;20141;-85
2023/06/22 07:12:37;;;;;;;3.85;2.30;;;23.70;72.20;;;;;;5000008;28;20477;-82
2023/06/22 07:15:08;;;;;;;5.88;2.90;;;23.70;72.30;;;;;;4996991;28;20041;-83
2023/06/22 07:17:36;;;;;;;4.63;2.75;;;23.70;72.30;;;;;;4990583;28;20136;-80
2023/06/22 07:20:11;;;;;;;4.32;2.67;;;23.60;72.30;;;;;;4977567;28;20052;-84
2023/06/22 07:22:40;;;;;;;4.35;3.00;;;23.50;72.40;;;;;;5005736;28;20056;-81
2023/06/22 07:25:10;;;;;;;5.85;3.53;;;23.50;72.30;;;;;;5009564;28;20057;-80
2023/06/22 07:27:45;;;;;;;4.22;2.88;;;23.60;72.00;;;;;;4979867;28;20398;-79
2023/06/22 07:30:12;;;;;;;4.32;2.40;;;23.60;71.90;;;;;;5026616;28;20073;-78
2023/06/22 07:32:41;;;;;;;3.17;1.98;;;23.70;71.80;;;;;;5007601;28;20045;-85
2023/06/22 07:35:08;;;;;;;3.83;2.30;;;23.80;71.70;;;;;;5013437;28;20068;-82
2023/06/22 07:37:35;;;;;;;3.50;2.45;;;23.90;71.60;;;;;;5017927;28;20095;-85
2023/06/22 07:40:06;;;;;;;5.07;2.50;;;23.90;71.40;;;;;;5045731;28;20396;-85
2023/06/22 07:42:33;;;;;;;2.88;2.05;;;23.90;71.40;;;;;;4983904;28;20084;-83
2023/06/22 07:45:02;;;;;;;3.72;2.05;;;24.00;71.20;;;;;;5015024;28;20041;-85
2023/06/22 07:47:29;;;;;;;3.20;2.10;;;24.10;70.90;;;;;;4998706;28;20069;-80
2023/06/22 07:50:00;;;;;;;3.00;1.40;;;24.20;70.70;;;;;;4998657;28;20088;-83
2023/06/22 07:52:29;;;;;;;4.25;2.92;;;24.20;70.70;;;;;;4998665;28;20048;-84
2023/06/22 07:54:56;;;;;;;3.33;1.95;;;24.30;70.50;;;;;;5014780;28;20052;-83
2023/06/22 07:57:31;;;;;;;2.88;1.80;;;24.30;70.30;;;;;;5010214;28;20386;-83
2023/06/22 08:00:15;;;;;;;4.25;2.17;;;24.50;70.20;;;;;;5005839;28;20115;-81
2023/06/22 08:02:44;;;;;;;2.92;1.98;;;24.60;69.60;;;;;;4998216;28;20042;-82
2023/06/22 08:05:13;;;;;;;2.17;1.38;;;24.70;69.40;;;;;;5005113;28;20046;-89
2023/06/22 08:08:03;;;;;;;3.30;2.00;;;24.80;69.30;;;;;;5011829;28;20056;-93
2023/06/22 08:10:30;;;;;;;2.92;1.77;;;24.80;69.10;;;;;;4999784;28;20041;-87
2023/06/22 08:13:00;;;;;;;3.40;1.90;;;24.80;69.00;;;;;;5000206;28;20042;-89
2023/06/22 08:15:28;;;;;;;3.47;1.90;;;24.90;68.90;;;;;;4999374;28;20494;-90
2023/06/22 08:17:57;;;;;;;3.13;2.00;;;24.90;68.80;;;;;;5013026;28;20050;-88
2023/06/22 08:20:25;;;;;;;4.10;1.55;;;24.90;68.60;;;;;;5019374;28;20472;-85
2023/06/22 08:22:55;;;;;;;3.65;1.73;;;25.00;68.50;;;;;;5032737;28;20064;-85
2023/06/22 08:25:22;;;;;;;2.60;1.85;;;25.00;68.50;;;;;;5004562;28;20103;-87
2023/06/22 08:27:49;;;;;;;4.15;1.77;;;25.00;68.50;;;;;;4966596;28;20049;-87
2023/06/22 08:30:18;;;;;;;3.05;1.65;;;25.00;68.40;;;;;;4999187;28;20061;-88
2023/06/22 08:32:45;;;;;;;2.75;1.80;;;25.00;68.30;;;;;;5010639;28;20076;-90
2023/06/22 08:35:13;;;;;;;3.35;1.95;;;25.00;68.20;;;;;;5000508;28;20067;-87
2023/06/22 08:37:40;;;;;;;2.85;1.70;;;25.00;68.10;;;;;;4999356;28;20049;-86
2023/06/22 08:40:09;;;;;;;3.40;1.63;;;25.00;68.00;;;;;;4995498;28;20045;-88
2023/06/22 08:42:38;;;;;;;4.03;1.92;;;25.20;67.60;;;;;;4995710;28;20054;-88
2023/06/22 08:45:06;;;;;;;4.38;1.80;;;25.40;67.30;;;;;;4998506;28;20079;-84
2023/06/22 08:47:33;;;;;;;3.33;2.05;;;25.50;67.10;;;;;;4998601;28;20436;-89
2023/06/22 08:50:03;;;;;;;4.13;2.45;;;25.50;67.00;;;;;;4998057;28;20050;-87
2023/06/22 08:52:33;;;;;;;2.55;1.63;;;25.60;66.80;;;;;;5001859;28;20041;-86
2023/06/22 08:55:02;;;;;;;2.58;1.83;;;25.60;66.60;;;;;;5002546;28;20045;-88
2023/06/22 08:57:48;;;;;;;3.28;1.92;;;25.60;66.50;;;;;;5002572;28;20081;-87
2023/06/22 09:00:18;;;;;;;3.42;2.47;;;25.60;66.40;;;;;;5018553;28;20513;-87
2023/06/22 09:02:46;;;;;;;3.58;1.90;;;25.50;66.40;;;;;;4983411;28;20050;-89
2023/06/22 09:05:14;;;;;;;2.50;1.60;;;25.50;66.30;;;;;;5008513;28;20058;-88
2023/06/22 09:07:41;;;;;;;2.88;1.58;;;25.60;66.30;;;;;;5000165;28;20056;-81
2023/06/22 09:10:09;;;;;;;3.50;1.70;;;25.70;66.00;;;;;;5029000;28;20033;-82
2023/06/22 09:12:37;;;;;;;3.38;2.20;;;25.80;65.60;;;;;;5003807;28;20057;-83
2023/06/22 09:15:06;;;;;;;2.58;1.60;;;25.90;65.20;;;;;;4994468;28;20100;-84
2023/06/22 09:17:41;;;;;;;2.60;1.35;;;26.00;65.00;;;;;;4993688;28;20056;-83
2023/06/22 09:20:10;;;;;;;2.97;1.90;;;26.30;64.70;;;;;;5000114;28;20053;-88
2023/06/22 09:22:40;;;;;;;2.58;1.48;;;26.60;64.00;;;;;;5018558;28;20068;-88
2023/06/22 09:25:08;;;;;;;3.20;1.90;;;26.70;63.70;;;;;;5002107;28;20065;-87
2023/06/22 09:27:35;;;;;;;2.10;1.08;;;26.80;63.50;;;;;;5013848;28;20049;-87
2023/06/22 09:30:03;;;;;;;2.20;1.35;;;26.70;63.40;;;;;;5026800;28;20048;-83
2023/06/22 09:32:30;;;;;;;3.47;1.58;;;26.80;63.00;;;;;;5017254;28;20057;-82
2023/06/22 09:34:58;;;;;;;2.40;1.60;;;26.70;62.80;;;;;;5024460;28;20045;-83
2023/06/22 09:37:25;;;;;;;3.20;1.42;;;26.70;62.50;;;;;;5017259;28;20041;-84
2023/06/22 09:39:55;;;;;;;2.10;1.38;;;26.70;62.30;;;;;;5034695;28;20412;-83
2023/06/22 09:42:22;;;;;;;2.53;0.93;;;26.70;62.30;;;;;;4998198;28;20045;-85
2023/06/22 09:44:49;;;;;;;1.73;1.08;;;26.80;62.20;;;;;;4990507;28;20481;-81
2023/06/22 09:47:17;;;;;;;2.13;1.30;;;26.80;62.10;;;;;;5010921;28;20041;-90
2023/06/22 09:49:44;;;;;;;1.67;0.85;;;26.70;62.00;;;;;;4987067;28;20050;-87
2023/06/22 09:52:18;;;;;;;3.05;1.33;;;26.60;62.10;;;;;;5012516;28;20102;-87
2023/06/22 09:54:45;;;;;;;3.28;1.30;;;26.50;62.00;;;;;;5037483;28;20493;-87
2023/06/22 09:57:12;;;;;;;2.25;1.25;;;26.50;61.80;;;;;;4998626;28;20144;-90
2023/06/22 09:59:42;;;;;;;2.03;1.02;;;26.40;61.80;;;;;;4981943;28;20476;-88
2023/06/22 10:02:10;;;;;;;5.10;1.52;;;26.40;61.80;;;;;;4991170;28;20038;-86
2023/06/22 10:04:37;;;;;;;2.17;1.35;;;26.30;61.80;;;;;;5005106;28;20081;-85
2023/06/22 10:07:05;;;;;;;2.35;1.33;;;26.20;61.60;;;;;;4981236;28;20060;-89
2023/06/22 10:09:36;;;;;;;3.85;1.42;;;26.00;61.70;;;;;;4986446;28;20041;-85
2023/06/22 10:12:04;;;;;;;1.90;1.27;;;26.00;61.90;;;;;;4996880;28;20058;-85
2023/06/22 10:14:32;;;;;;;1.85;1.30;;;25.90;61.90;;;;;;5016351;28;20120;-81
2023/06/22 10:16:59;;;;;;;3.28;1.17;;;25.80;62.00;;;;;;5019684;28;20079;-83
2023/06/22 10:19:26;;;;;;;2.90;1.63;;;25.70;62.20;;;;;;5035452;28;20048;-82
2023/06/22 10:21:53;;;;;;;3.40;1.73;;;25.60;62.10;;;;;;4998537;28;20088;-83
2023/06/22 10:24:20;;;;;;;2.92;1.60;;;25.50;62.00;;;;;;5001368;28;20151;-90
2023/06/22 10:26:48;;;;;;;2.28;1.25;;;25.50;62.10;;;;;;5000569;28;20148;-86
2023/06/22 10:29:16;;;;;;;2.60;1.45;;;25.50;62.10;;;;;;5005838;28;20543;-87
2023/06/22 10:31:43;;;;;;;2.58;1.52;;;25.50;62.00;;;;;;5006462;28;20056;-86
2023/06/22 10:34:11;;;;;;;2.65;1.27;;;25.50;61.80;;;;;;4991443;28;20048;-90
2023/06/22 10:36:39;;;;;;;2.78;1.35;;;25.50;61.70;;;;;;5016693;28;20069;-88
2023/06/22 10:39:06;;;;;;;2.55;1.48;;;25.60;61.70;;;;;;5000635;28;20053;-89
2023/06/22 10:41:33;;;;;;;2.35;1.45;;;25.60;61.40;;;;;;5017071;28;20050;-88
2023/06/22 10:44:03;;;;;;;2.63;1.40;;;25.60;61.30;;;;;;5003155;28;20069;-91
2023/06/22 10:46:30;;;;;;;2.13;1.38;;;25.70;61.30;;;;;;4997026;28;20046;-89
2023/06/22 10:48:58;;;;;;;2.55;1.23;;;25.80;61.30;;;;;;4978008;28;20107;-86
2023/06/22 10:51:27;;;;;;;2.95;1.90;;;25.80;61.20;;;;;;5003335;28;20050;-86
2023/06/22 10:53:55;;;;;;;3.33;1.70;;;25.80;61.20;;;;;;4983728;28;20048;-87
2023/06/22 10:56:22;;;;;;;2.53;1.52;;;25.80;61.30;;;;;;5024312;28;20053;-86
2023/06/22 10:58:49;;;;;;;2.08;1.30;;;25.80;61.20;;;;;;5007132;28;20049;-87
2023/06/22 11:01:21;;;;;;;2.60;1.50;;;25.80;61.20;;;;;;5000149;28;20083;-88
2023/06/22 11:04:03;;;;;;;2.67;1.40;;;25.90;61.20;;;;;;5035545;28;20137;-87
2023/06/22 11:06:31;;;;;;;2.65;1.23;;;25.80;61.30;;;;;;5000013;28;20045;-87
2023/06/22 11:08:59;;;;;;;2.33;1.15;;;25.80;61.30;;;;;;5035406;28;20049;-90
2023/06/22 11:11:29;;;;;;;3.17;1.42;;;25.80;61.40;;;;;;5001579;28;20063;-88
2023/06/22 11:13:56;;;;;;;4.05;2.20;;;25.80;61.40;;;;;;4984816;28;20453;-85
2023/06/22 11:16:23;;;;;;;2.72;1.83;;;25.70;61.30;;;;;;4985272;28;20049;-82
2023/06/22 11:18:50;;;;;;;2.47;1.63;;;25.70;61.40;;;;;;5015205;28;20163;-83
2023/06/22 11:21:17;;;;;;;3.10;1.63;;;25.60;61.40;;;;;;4999045;28;20506;-84
2023/06/22 11:23:45;;;;;;;2.63;1.75;;;25.60;61.40;;;;;;4987884;28;20060;-82
2023/06/22 11:26:12;;;;;;;2.42;1.50;;;25.60;61.40;;;;;;5001021;28;20167;-81
2023/06/22 11:28:39;;;;;;;2.72;1.67;;;25.60;61.70;;;;;;4998671;28;20100;-82
2023/06/22 11:31:07;;;;;;;2.88;2.00;;;25.60;61.90;;;;;;4985805;28;20046;-78
2023/06/22 11:33:51;;;;;;;2.67;1.70;;;25.50;62.20;;;;;;4993521;28;20055;-79
2023/06/22 11:36:19;;;;;;;4.15;1.88;;;25.30;62.50;;;;;;5017186;28;20040;-80
2023/06/22 11:38:46;;;;;;;2.88;2.10;;;25.20;63.00;;;;;;5014652;28;20046;-79
2023/06/22 11:41:15;;;;;;;4.05;2.22;;;25.10;63.60;;;;;;5004012;28;20136;-76
2023/06/22 11:43:45;;;;;;;4.57;2.08;;;24.90;64.00;;;;;;4997555;28;20479;-76
2023/06/22 11:46:12;;;;;;;3.22;1.88;;;24.70;64.50;;;;;;5002035;28;20410;-80
2023/06/22 11:48:39;;;;;;;3.40;1.83;;;24.50;65.00;;;;;;4995269;28;20104;-79
2023/06/22 11:51:07;;;;;;;3.50;1.80;;;24.40;65.30;;;;;;4998084;28;20132;-81
2023/06/22 11:53:35;;;;;;;3.67;2.50;;;24.30;65.70;;;;;;5014715;28;20054;-80
2023/06/22 11:56:02;;;;;;;2.85;2.13;;;24.20;66.00;;;;;;4984636;28;20049;-80
2023/06/22 11:58:30;;;;;;;3.47;1.88;;;24.10;66.40;;;;;;4995394;28;20042;-85
2023/06/22 12:00:57;;;;;;;3.88;2.15;;;23.90;67.60;;;;;;4976642;28;20123;-80
2023/06/22 12:03:24;;;;;;;3.17;2.00;;;23.70;67.70;;;;;;5003682;28;20593;-81
2023/06/22 12:05:54;;;;;;;3.30;2.10;;;23.60;68.30;;;;;;4988247;28;20041;-81
2023/06/22 12:08:21;;;;;;;3.67;2.83;;;23.40;68.80;;;;;;5006766;28;20046;-81
2023/06/22 12:10:50;;;;;;;2.75;1.98;;;23.20;69.70;;;;;;5003269;28;20045;-81
2023/06/22 12:13:17;;;;;;;3.88;2.33;;;23.10;70.00;;;;;;5017195;28;20045;-81
2023/06/22 12:16:29;;;;;;;2.83;2.03;;;23.00;70.40;;;;;;4994258;28;20064;-88
2023/06/22 12:19:06;;;;;;;3.20;1.85;;;23.00;71.40;;;;;;5003360;28;20168;-81
2023/06/22 12:21:33;;;;;;;4.50;2.20;;;22.80;71.30;;;;;;5026641;28;20044;-80
2023/06/22 12:24:00;;;;;;;3.28;2.17;;;22.80;71.80;;;;;;5005108;28;20057;-81
2023/06/22 12:26:27;;;;;;;3.55;1.83;;;22.70;72.20;;;;;;5016591;28;20072;-78
2023/06/22 12:28:54;;;;;;;3.03;1.98;;;22.60;72.80;;;;;;5029949;28;20076;-79
2023/06/22 12:31:21;;;;;;;4.05;2.60;;;22.50;73.50;;;;;;5018471;28;20135;-83
2023/06/22 12:33:52;;;;;;;5.97;2.63;;;22.50;74.20;;;;;;5027603;28;20052;-79
2023/06/22 12:36:19;;;;;;;4.03;2.65;;;22.30;74.70;;;;;;5018290;28;20064;-80
2023/06/22 12:38:46;;;;;;;4.45;2.53;;;22.10;75.00;;;;;;5012354;28;20056;-79
2023/06/22 12:41:13;;;;;;;3.10;2.20;;;22.00;75.50;;;;;;5003269;28;20080;-80
2023/06/22 12:43:40;;;;;;;3.80;2.08;;;21.90;76.00;;;;;;5003614;28;20051;-80
2023/06/22 12:46:07;;;;;;;3.78;2.35;;;21.90;76.40;;;;;;5042548;28;20067;-81
2023/06/22 12:48:41;;;;;;;4.05;2.65;;;21.90;76.70;;;;;;4969651;28;20489;-78
2023/06/22 12:51:09;;;;;;;3.83;2.80;;;21.90;77.20;;;;;;4985691;28;20046;-80
2023/06/22 12:53:37;;;;;;;4.65;3.08;;;21.80;77.50;;;;;;4998463;28;20153;-82
2023/06/22 12:56:05;;;;;;;6.20;3.35;;;21.80;77.90;;;;;;5004537;28;20040;-81